sensor_id;sensor_type;location;lat;lon;timestamp;P1;durP1;ratioP1;P2;durP2;ratioP2
9860;SDS011;4969;52.304;4.968;2023-03-13T00:01:34;53.58;;;38.28;;
9860;SDS011;4969;52.304;4.968;2023-03-13T00:04:02;60.25;;;41.60;;
9860;SDS011;4969;52.304;4.968;2023-03-13T00:06:30;26.38;;;11.90;;
9860;SDS011;4969;52.304;4.968;2023-03-13T00:08:59;51.23;;;34.20;;
9860;SDS011;4969;52.304;4.968;2023-03-13T00:11:26;57.25;;;40.40;;
9860;SDS011;4969;52.304;4.968;2023-03-13T00:13:54;59.70;;;41.95;;
9860;SDS011;4969;52.304;4.968;2023-03-13T00:16:21;71.65;;;48.60;;
9860;SDS011;4969;52.304;4.968;2023-03-13T00:18:48;18.92;;;7.57;;
9860;SDS011;4969;52.304;4.968;2023-03-13T00:21:17;50.53;;;34.42;;
9860;SDS011;4969;52.304;4.968;2023-03-13T00:23:46;40.03;;;24.90;;
9860;SDS011;4969;52.304;4.968;2023-03-13T00:26:13;73.53;;;52.83;;
9860;SDS011;4969;52.304;4.968;2023-03-13T00:28:41;54.50;;;36.78;;
9860;SDS011;4969;52.304;4.968;2023-03-13T00:31:09;65.13;;;46.95;;
9860;SDS011;4969;52.304;4.968;2023-03-13T00:33:37;54.55;;;39.33;;
9860;SDS011;4969;52.304;4.968;2023-03-13T00:36:05;52.33;;;34.17;;
9860;SDS011;4969;52.304;4.968;2023-03-13T00:38:34;62.58;;;44.33;;
9860;SDS011;4969;52.304;4.968;2023-03-13T00:41:03;30.60;;;19.50;;
9860;SDS011;4969;52.304;4.968;2023-03-13T00:43:32;52.70;;;37.28;;
9860;SDS011;4969;52.304;4.968;2023-03-13T00:46:00;77.50;;;52.45;;
9860;SDS011;4969;52.304;4.968;2023-03-13T00:48:27;88.00;;;54.77;;
9860;SDS011;4969;52.304;4.968;2023-03-13T00:50:53;58.47;;;38.25;;
9860;SDS011;4969;52.304;4.968;2023-03-13T00:53:20;83.38;;;62.83;;
9860;SDS011;4969;52.304;4.968;2023-03-13T00:55:50;73.03;;;53.75;;
9860;SDS011;4969;52.304;4.968;2023-03-13T00:58:22;57.90;;;41.33;;
9860;SDS011;4969;52.304;4.968;2023-03-13T01:00:50;50.60;;;33.17;;
9860;SDS011;4969;52.304;4.968;2023-03-13T01:03:18;66.13;;;47.78;;
9860;SDS011;4969;52.304;4.968;2023-03-13T01:05:53;11.85;;;7.00;;
9860;SDS011;4969;52.304;4.968;2023-03-13T01:08:20;57.30;;;42.95;;
9860;SDS011;4969;52.304;4.968;2023-03-13T01:10:47;35.30;;;26.08;;
9860;SDS011;4969;52.304;4.968;2023-03-13T01:13:13;60.22;;;42.03;;
9860;SDS011;4969;52.304;4.968;2023-03-13T01:15:41;45.53;;;33.40;;
9860;SDS011;4969;52.304;4.968;2023-03-13T01:18:08;51.30;;;37.53;;
9860;SDS011;4969;52.304;4.968;2023-03-13T01:20:34;92.75;;;55.92;;
9860;SDS011;4969;52.304;4.968;2023-03-13T01:23:01;63.13;;;46.75;;
9860;SDS011;4969;52.304;4.968;2023-03-13T01:25:27;79.10;;;60.55;;
9860;SDS011;4969;52.304;4.968;2023-03-13T01:27:54;52.60;;;38.88;;
9860;SDS011;4969;52.304;4.968;2023-03-13T01:30:20;64.47;;;48.08;;
9860;SDS011;4969;52.304;4.968;2023-03-13T01:32:48;70.68;;;49.05;;
9860;SDS011;4969;52.304;4.968;2023-03-13T01:35:15;55.67;;;41.67;;
9860;SDS011;4969;52.304;4.968;2023-03-13T01:37:42;47.90;;;34.67;;
9860;SDS011;4969;52.304;4.968;2023-03-13T01:40:09;66.23;;;43.50;;
9860;SDS011;4969;52.304;4.968;2023-03-13T01:42:50;40.33;;;27.70;;
9860;SDS011;4969;52.304;4.968;2023-03-13T01:48:20;27.65;;;21.73;;
9860;SDS011;4969;52.304;4.968;2023-03-13T01:50:47;47.42;;;36.83;;
9860;SDS011;4969;52.304;4.968;2023-03-13T01:53:14;45.00;;;33.17;;
9860;SDS011;4969;52.304;4.968;2023-03-13T01:55:40;49.97;;;36.83;;
9860;SDS011;4969;52.304;4.968;2023-03-13T01:58:07;39.38;;;29.15;;
9860;SDS011;4969;52.304;4.968;2023-03-13T02:00:34;42.80;;;32.40;;
9860;SDS011;4969;52.304;4.968;2023-03-13T02:03:03;51.83;;;41.23;;
9860;SDS011;4969;52.304;4.968;2023-03-13T02:05:35;40.47;;;31.03;;
9860;SDS011;4969;52.304;4.968;2023-03-13T02:08:03;42.90;;;33.33;;
9860;SDS011;4969;52.304;4.968;2023-03-13T02:10:34;6.88;;;5.30;;
9860;SDS011;4969;52.304;4.968;2023-03-13T02:13:04;40.10;;;31.10;;
9860;SDS011;4969;52.304;4.968;2023-03-13T02:15:31;61.90;;;46.42;;
9860;SDS011;4969;52.304;4.968;2023-03-13T02:17:59;51.40;;;39.08;;
9860;SDS011;4969;52.304;4.968;2023-03-13T02:20:26;42.90;;;34.47;;
9860;SDS011;4969;52.304;4.968;2023-03-13T02:22:55;24.77;;;19.52;;
9860;SDS011;4969;52.304;4.968;2023-03-13T02:25:30;22.88;;;18.33;;
9860;SDS011;4969;52.304;4.968;2023-03-13T02:28:02;47.13;;;37.10;;
9860;SDS011;4969;52.304;4.968;2023-03-13T02:30:32;18.52;;;12.55;;
9860;SDS011;4969;52.304;4.968;2023-03-13T02:32:59;39.60;;;29.53;;
9860;SDS011;4969;52.304;4.968;2023-03-13T02:35:26;35.78;;;24.52;;
9860;SDS011;4969;52.304;4.968;2023-03-13T02:37:54;25.63;;;20.77;;
9860;SDS011;4969;52.304;4.968;2023-03-13T02:40:25;24.27;;;20.37;;
9860;SDS011;4969;52.304;4.968;2023-03-13T02:42:55;27.70;;;16.67;;
9860;SDS011;4969;52.304;4.968;2023-03-13T02:45:25;16.80;;;13.20;;
9860;SDS011;4969;52.304;4.968;2023-03-13T02:47:52;23.03;;;16.00;;
9860;SDS011;4969;52.304;4.968;2023-03-13T02:50:18;16.20;;;12.43;;
9860;SDS011;4969;52.304;4.968;2023-03-13T02:52:47;18.53;;;15.27;;
9860;SDS011;4969;52.304;4.968;2023-03-13T02:55:15;24.97;;;16.43;;
9860;SDS011;4969;52.304;4.968;2023-03-13T02:57:47;18.30;;;14.40;;
9860;SDS011;4969;52.304;4.968;2023-03-13T03:00:15;50.90;;;34.07;;
9860;SDS011;4969;52.304;4.968;2023-03-13T03:02:43;21.77;;;17.70;;
9860;SDS011;4969;52.304;4.968;2023-03-13T03:05:10;26.37;;;18.67;;
9860;SDS011;4969;52.304;4.968;2023-03-13T03:07:38;36.17;;;29.97;;
9860;SDS011;4969;52.304;4.968;2023-03-13T03:10:05;21.20;;;15.90;;
9860;SDS011;4969;52.304;4.968;2023-03-13T03:12:32;42.50;;;24.47;;
9860;SDS011;4969;52.304;4.968;2023-03-13T03:14:59;23.67;;;15.80;;
9860;SDS011;4969;52.304;4.968;2023-03-13T03:17:27;23.43;;;19.20;;
9860;SDS011;4969;52.304;4.968;2023-03-13T03:19:53;40.83;;;33.17;;
9860;SDS011;4969;52.304;4.968;2023-03-13T03:22:20;16.40;;;11.77;;
9860;SDS011;4969;52.304;4.968;2023-03-13T03:24:46;20.03;;;15.17;;
9860;SDS011;4969;52.304;4.968;2023-03-13T03:27:13;25.30;;;15.97;;
9860;SDS011;4969;52.304;4.968;2023-03-13T03:29:40;17.13;;;13.57;;
9860;SDS011;4969;52.304;4.968;2023-03-13T03:32:06;24.17;;;17.13;;
9860;SDS011;4969;52.304;4.968;2023-03-13T03:34:34;13.23;;;10.07;;
9860;SDS011;4969;52.304;4.968;2023-03-13T03:37:01;8.97;;;5.27;;
9860;SDS011;4969;52.304;4.968;2023-03-13T03:39:27;13.93;;;10.93;;
9860;SDS011;4969;52.304;4.968;2023-03-13T03:41:54;15.90;;;12.63;;
9860;SDS011;4969;52.304;4.968;2023-03-13T03:44:20;16.30;;;11.60;;
9860;SDS011;4969;52.304;4.968;2023-03-13T03:46:47;8.10;;;3.80;;
9860;SDS011;4969;52.304;4.968;2023-03-13T03:49:13;16.97;;;11.60;;
9860;SDS011;4969;52.304;4.968;2023-03-13T03:51:41;19.30;;;13.40;;
9860;SDS011;4969;52.304;4.968;2023-03-13T03:54:08;10.00;;;6.13;;
9860;SDS011;4969;52.304;4.968;2023-03-13T03:56:34;9.00;;;7.00;;
9860;SDS011;4969;52.304;4.968;2023-03-13T03:59:01;14.43;;;10.00;;
9860;SDS011;4969;52.304;4.968;2023-03-13T04:01:27;17.63;;;12.90;;
9860;SDS011;4969;52.304;4.968;2023-03-13T04:03:54;7.53;;;4.13;;
9860;SDS011;4969;52.304;4.968;2023-03-13T04:06:20;9.47;;;6.57;;
9860;SDS011;4969;52.304;4.968;2023-03-13T04:08:48;18.83;;;11.50;;
9860;SDS011;4969;52.304;4.968;2023-03-13T04:11:15;13.23;;;10.13;;
9860;SDS011;4969;52.304;4.968;2023-03-13T04:13:41;11.20;;;7.93;;
9860;SDS011;4969;52.304;4.968;2023-03-13T04:16:08;12.43;;;9.97;;
9860;SDS011;4969;52.304;4.968;2023-03-13T04:18:35;21.40;;;14.40;;
9860;SDS011;4969;52.304;4.968;2023-03-13T04:21:02;8.73;;;5.63;;
9860;SDS011;4969;52.304;4.968;2023-03-13T04:23:30;20.80;;;15.37;;
9860;SDS011;4969;52.304;4.968;2023-03-13T04:25:58;11.63;;;7.80;;
9860;SDS011;4969;52.304;4.968;2023-03-13T04:28:24;23.30;;;18.70;;
9860;SDS011;4969;52.304;4.968;2023-03-13T04:30:51;22.43;;;15.30;;
9860;SDS011;4969;52.304;4.968;2023-03-13T04:33:21;8.53;;;7.40;;
9860;SDS011;4969;52.304;4.968;2023-03-13T04:35:47;9.80;;;7.93;;
9860;SDS011;4969;52.304;4.968;2023-03-13T04:38:14;12.80;;;10.37;;
9860;SDS011;4969;52.304;4.968;2023-03-13T04:40:41;13.23;;;8.13;;
9860;SDS011;4969;52.304;4.968;2023-03-13T04:43:09;18.17;;;13.50;;
9860;SDS011;4969;52.304;4.968;2023-03-13T04:45:35;6.87;;;5.90;;
9860;SDS011;4969;52.304;4.968;2023-03-13T04:48:02;12.80;;;10.43;;
9860;SDS011;4969;52.304;4.968;2023-03-13T04:50:28;11.37;;;8.80;;
9860;SDS011;4969;52.304;4.968;2023-03-13T04:52:55;11.33;;;9.33;;
9860;SDS011;4969;52.304;4.968;2023-03-13T04:55:22;14.47;;;11.67;;
9860;SDS011;4969;52.304;4.968;2023-03-13T04:57:48;16.20;;;12.57;;
9860;SDS011;4969;52.304;4.968;2023-03-13T05:00:17;17.40;;;14.67;;
9860;SDS011;4969;52.304;4.968;2023-03-13T05:02:44;12.13;;;10.33;;
9860;SDS011;4969;52.304;4.968;2023-03-13T05:05:10;9.60;;;8.60;;
9860;SDS011;4969;52.304;4.968;2023-03-13T05:07:37;8.53;;;6.37;;
9860;SDS011;4969;52.304;4.968;2023-03-13T05:10:04;9.67;;;6.10;;
9860;SDS011;4969;52.304;4.968;2023-03-13T05:12:31;9.00;;;6.33;;
9860;SDS011;4969;52.304;4.968;2023-03-13T05:14:57;10.67;;;6.37;;
9860;SDS011;4969;52.304;4.968;2023-03-13T05:17:25;12.37;;;8.40;;
9860;SDS011;4969;52.304;4.968;2023-03-13T05:19:52;7.33;;;4.40;;
9860;SDS011;4969;52.304;4.968;2023-03-13T05:22:18;11.33;;;6.07;;
9860;SDS011;4969;52.304;4.968;2023-03-13T05:24:45;19.23;;;14.70;;
9860;SDS011;4969;52.304;4.968;2023-03-13T05:27:11;18.67;;;12.27;;
9860;SDS011;4969;52.304;4.968;2023-03-13T05:29:38;10.60;;;6.27;;
9860;SDS011;4969;52.304;4.968;2023-03-13T05:32:05;11.37;;;5.53;;
9860;SDS011;4969;52.304;4.968;2023-03-13T05:34:33;13.80;;;9.37;;
9860;SDS011;4969;52.304;4.968;2023-03-13T05:36:59;15.33;;;10.50;;
9860;SDS011;4969;52.304;4.968;2023-03-13T05:39:26;11.70;;;7.53;;
9860;SDS011;4969;52.304;4.968;2023-03-13T05:41:52;12.33;;;8.50;;
9860;SDS011;4969;52.304;4.968;2023-03-13T05:44:19;10.43;;;4.63;;
9860;SDS011;4969;52.304;4.968;2023-03-13T05:46:45;10.82;;;6.43;;
9860;SDS011;4969;52.304;4.968;2023-03-13T05:49:12;10.13;;;5.73;;
9860;SDS011;4969;52.304;4.968;2023-03-13T05:51:40;9.63;;;5.03;;
9860;SDS011;4969;52.304;4.968;2023-03-13T05:54:07;10.90;;;6.83;;
9860;SDS011;4969;52.304;4.968;2023-03-13T05:56:33;9.33;;;4.30;;
9860;SDS011;4969;52.304;4.968;2023-03-13T05:59:00;12.73;;;9.53;;
9860;SDS011;4969;52.304;4.968;2023-03-13T06:01:26;11.57;;;5.65;;
9860;SDS011;4969;52.304;4.968;2023-03-13T06:03:56;10.37;;;6.57;;
9860;SDS011;4969;52.304;4.968;2023-03-13T06:06:29;11.00;;;4.77;;
9860;SDS011;4969;52.304;4.968;2023-03-13T06:08:57;14.83;;;8.53;;
9860;SDS011;4969;52.304;4.968;2023-03-13T06:11:24;13.53;;;7.30;;
9860;SDS011;4969;52.304;4.968;2023-03-13T06:13:50;8.87;;;5.07;;
9860;SDS011;4969;52.304;4.968;2023-03-13T06:16:17;12.90;;;6.40;;
9860;SDS011;4969;52.304;4.968;2023-03-13T06:18:44;13.27;;;7.50;;
9860;SDS011;4969;52.304;4.968;2023-03-13T06:21:11;10.43;;;5.07;;
9860;SDS011;4969;52.304;4.968;2023-03-13T06:23:38;10.53;;;3.83;;
9860;SDS011;4969;52.304;4.968;2023-03-13T06:26:07;7.13;;;3.33;;
9860;SDS011;4969;52.304;4.968;2023-03-13T06:28:34;8.87;;;4.40;;
9860;SDS011;4969;52.304;4.968;2023-03-13T06:31:01;10.30;;;6.60;;
9860;SDS011;4969;52.304;4.968;2023-03-13T06:33:28;8.20;;;4.67;;
9860;SDS011;4969;52.304;4.968;2023-03-13T06:35:55;10.57;;;5.57;;
9860;SDS011;4969;52.304;4.968;2023-03-13T06:38:22;10.13;;;5.03;;
9860;SDS011;4969;52.304;4.968;2023-03-13T06:40:49;10.03;;;4.40;;
9860;SDS011;4969;52.304;4.968;2023-03-13T06:43:17;8.20;;;3.37;;
9860;SDS011;4969;52.304;4.968;2023-03-13T06:45:44;8.97;;;5.17;;
9860;SDS011;4969;52.304;4.968;2023-03-13T06:48:10;10.13;;;4.77;;
9860;SDS011;4969;52.304;4.968;2023-03-13T06:50:37;11.57;;;4.77;;
9860;SDS011;4969;52.304;4.968;2023-03-13T06:53:04;7.87;;;4.27;;
9860;SDS011;4969;52.304;4.968;2023-03-13T06:55:31;7.67;;;3.20;;
9860;SDS011;4969;52.304;4.968;2023-03-13T06:57:58;7.37;;;3.77;;
9860;SDS011;4969;52.304;4.968;2023-03-13T07:00:26;7.97;;;3.60;;
9860;SDS011;4969;52.304;4.968;2023-03-13T07:02:52;7.37;;;3.30;;
9860;SDS011;4969;52.304;4.968;2023-03-13T07:05:19;8.30;;;4.53;;
9860;SDS011;4969;52.304;4.968;2023-03-13T07:07:46;8.60;;;4.00;;
9860;SDS011;4969;52.304;4.968;2023-03-13T07:10:12;7.20;;;3.20;;
9860;SDS011;4969;52.304;4.968;2023-03-13T07:12:39;6.23;;;4.23;;
9860;SDS011;4969;52.304;4.968;2023-03-13T07:15:06;9.70;;;4.90;;
9860;SDS011;4969;52.304;4.968;2023-03-13T07:17:35;5.07;;;4.07;;
9860;SDS011;4969;52.304;4.968;2023-03-13T07:20:02;7.10;;;3.90;;
9860;SDS011;4969;52.304;4.968;2023-03-13T07:22:30;5.90;;;2.93;;
9860;SDS011;4969;52.304;4.968;2023-03-13T07:24:57;5.30;;;3.00;;
9860;SDS011;4969;52.304;4.968;2023-03-13T07:27:23;9.10;;;4.63;;
9860;SDS011;4969;52.304;4.968;2023-03-13T07:29:50;7.17;;;3.30;;
9860;SDS011;4969;52.304;4.968;2023-03-13T07:32:16;7.70;;;4.37;;
9860;SDS011;4969;52.304;4.968;2023-03-13T07:34:44;6.53;;;4.33;;
9860;SDS011;4969;52.304;4.968;2023-03-13T07:37:11;5.43;;;2.73;;
9860;SDS011;4969;52.304;4.968;2023-03-13T07:39:38;6.07;;;4.63;;
9860;SDS011;4969;52.304;4.968;2023-03-13T07:42:04;7.80;;;4.63;;
9860;SDS011;4969;52.304;4.968;2023-03-13T07:44:31;5.07;;;3.83;;
9860;SDS011;4969;52.304;4.968;2023-03-13T07:46:58;4.97;;;2.93;;
9860;SDS011;4969;52.304;4.968;2023-03-13T07:49:25;6.17;;;2.50;;
9860;SDS011;4969;52.304;4.968;2023-03-13T07:51:53;7.00;;;4.20;;
9860;SDS011;4969;52.304;4.968;2023-03-13T07:54:19;9.17;;;3.73;;
9860;SDS011;4969;52.304;4.968;2023-03-13T07:56:46;9.27;;;3.30;;
9860;SDS011;4969;52.304;4.968;2023-03-13T07:59:12;6.47;;;3.30;;
9860;SDS011;4969;52.304;4.968;2023-03-13T08:01:39;7.87;;;4.07;;
9860;SDS011;4969;52.304;4.968;2023-03-13T08:04:06;8.03;;;3.67;;
9860;SDS011;4969;52.304;4.968;2023-03-13T08:06:34;9.23;;;3.73;;
9860;SDS011;4969;52.304;4.968;2023-03-13T08:09:03;7.90;;;3.43;;
9860;SDS011;4969;52.304;4.968;2023-03-13T08:11:30;6.13;;;3.17;;
9860;SDS011;4969;52.304;4.968;2023-03-13T08:13:56;5.17;;;2.90;;
9860;SDS011;4969;52.304;4.968;2023-03-13T08:16:24;5.83;;;2.90;;
9860;SDS011;4969;52.304;4.968;2023-03-13T08:18:53;9.30;;;3.63;;
9860;SDS011;4969;52.304;4.968;2023-03-13T08:21:21;6.83;;;2.80;;
9860;SDS011;4969;52.304;4.968;2023-03-13T08:23:51;4.97;;;2.60;;
9860;SDS011;4969;52.304;4.968;2023-03-13T08:26:20;7.03;;;3.00;;
9860;SDS011;4969;52.304;4.968;2023-03-13T08:28:50;6.60;;;2.97;;
9860;SDS011;4969;52.304;4.968;2023-03-13T08:31:18;4.90;;;2.67;;
9860;SDS011;4969;52.304;4.968;2023-03-13T08:33:47;7.77;;;2.93;;
9860;SDS011;4969;52.304;4.968;2023-03-13T08:36:15;4.60;;;2.80;;
9860;SDS011;4969;52.304;4.968;2023-03-13T08:38:43;4.37;;;3.13;;
9860;SDS011;4969;52.304;4.968;2023-03-13T08:41:10;5.70;;;2.37;;
9860;SDS011;4969;52.304;4.968;2023-03-13T08:43:38;4.87;;;2.67;;
9860;SDS011;4969;52.304;4.968;2023-03-13T08:46:05;6.30;;;2.60;;
9860;SDS011;4969;52.304;4.968;2023-03-13T08:48:31;7.37;;;2.67;;
9860;SDS011;4969;52.304;4.968;2023-03-13T08:51:01;5.67;;;2.50;;
9860;SDS011;4969;52.304;4.968;2023-03-13T08:53:30;8.57;;;3.03;;
9860;SDS011;4969;52.304;4.968;2023-03-13T08:55:57;8.03;;;2.80;;
9860;SDS011;4969;52.304;4.968;2023-03-13T08:58:24;9.20;;;2.70;;
9860;SDS011;4969;52.304;4.968;2023-03-13T09:00:53;6.60;;;2.60;;
9860;SDS011;4969;52.304;4.968;2023-03-13T09:03:20;5.13;;;2.80;;
9860;SDS011;4969;52.304;4.968;2023-03-13T09:05:46;7.93;;;3.03;;
9860;SDS011;4969;52.304;4.968;2023-03-13T09:08:13;7.93;;;2.43;;
9860;SDS011;4969;52.304;4.968;2023-03-13T09:10:40;8.30;;;2.80;;
9860;SDS011;4969;52.304;4.968;2023-03-13T09:13:06;7.47;;;2.87;;
9860;SDS011;4969;52.304;4.968;2023-03-13T09:15:33;9.43;;;3.97;;
9860;SDS011;4969;52.304;4.968;2023-03-13T09:18:01;6.87;;;2.73;;
9860;SDS011;4969;52.304;4.968;2023-03-13T09:20:27;12.73;;;3.73;;
9860;SDS011;4969;52.304;4.968;2023-03-13T09:22:54;15.83;;;9.70;;
9860;SDS011;4969;52.304;4.968;2023-03-13T09:25:20;35.27;;;19.97;;
9860;SDS011;4969;52.304;4.968;2023-03-13T09:27:47;17.80;;;7.70;;
9860;SDS011;4969;52.304;4.968;2023-03-13T09:30:14;14.23;;;6.47;;
9860;SDS011;4969;52.304;4.968;2023-03-13T09:32:40;19.40;;;11.52;;
9860;SDS011;4969;52.304;4.968;2023-03-13T09:35:09;20.67;;;10.37;;
9860;SDS011;4969;52.304;4.968;2023-03-13T09:37:35;17.27;;;8.10;;
9860;SDS011;4969;52.304;4.968;2023-03-13T09:40:03;20.90;;;10.30;;
9860;SDS011;4969;52.304;4.968;2023-03-13T09:42:34;16.85;;;8.48;;
9860;SDS011;4969;52.304;4.968;2023-03-13T09:45:11;9.97;;;3.27;;
9860;SDS011;4969;52.304;4.968;2023-03-13T09:47:41;16.67;;;8.77;;
9860;SDS011;4969;52.304;4.968;2023-03-13T09:50:12;20.63;;;10.70;;
9860;SDS011;4969;52.304;4.968;2023-03-13T09:52:43;13.47;;;5.03;;
9860;SDS011;4969;52.304;4.968;2023-03-13T09:55:12;14.47;;;7.03;;
9860;SDS011;4969;52.304;4.968;2023-03-13T09:57:45;10.13;;;6.20;;
9860;SDS011;4969;52.304;4.968;2023-03-13T10:00:17;10.25;;;5.75;;
9860;SDS011;4969;52.304;4.968;2023-03-13T10:02:50;11.15;;;6.13;;
9860;SDS011;4969;52.304;4.968;2023-03-13T10:05:23;29.33;;;17.80;;
9860;SDS011;4969;52.304;4.968;2023-03-13T10:07:53;21.13;;;13.10;;
9860;SDS011;4969;52.304;4.968;2023-03-13T10:10:24;21.23;;;14.35;;
9860;SDS011;4969;52.304;4.968;2023-03-13T10:13:02;14.07;;;7.50;;
9860;SDS011;4969;52.304;4.968;2023-03-13T10:15:38;17.05;;;11.27;;
9860;SDS011;4969;52.304;4.968;2023-03-13T10:18:15;13.50;;;8.45;;
9860;SDS011;4969;52.304;4.968;2023-03-13T10:20:47;18.83;;;11.43;;
9860;SDS011;4969;52.304;4.968;2023-03-13T10:23:15;13.85;;;8.88;;
9860;SDS011;4969;52.304;4.968;2023-03-13T10:25:46;5.57;;;2.45;;
9860;SDS011;4969;52.304;4.968;2023-03-13T10:28:13;6.43;;;3.42;;
9860;SDS011;4969;52.304;4.968;2023-03-13T10:30:45;10.68;;;7.18;;
9860;SDS011;4969;52.304;4.968;2023-03-13T10:33:20;9.50;;;6.45;;
9860;SDS011;4969;52.304;4.968;2023-03-13T10:36:01;8.98;;;5.22;;
9860;SDS011;4969;52.304;4.968;2023-03-13T10:38:32;9.93;;;6.93;;
9860;SDS011;4969;52.304;4.968;2023-03-13T10:41:00;10.10;;;5.97;;
9860;SDS011;4969;52.304;4.968;2023-03-13T10:43:30;7.28;;;4.05;;
9860;SDS011;4969;52.304;4.968;2023-03-13T10:45:57;7.53;;;3.67;;
9860;SDS011;4969;52.304;4.968;2023-03-13T10:48:24;13.77;;;8.35;;
9860;SDS011;4969;52.304;4.968;2023-03-13T10:50:52;14.98;;;6.20;;
9860;SDS011;4969;52.304;4.968;2023-03-13T10:53:31;12.73;;;7.65;;
9860;SDS011;4969;52.304;4.968;2023-03-13T10:56:02;12.50;;;7.22;;
9860;SDS011;4969;52.304;4.968;2023-03-13T10:58:36;13.27;;;5.10;;
9860;SDS011;4969;52.304;4.968;2023-03-13T11:01:09;17.35;;;11.30;;
9860;SDS011;4969;52.304;4.968;2023-03-13T11:03:42;15.38;;;8.52;;
9860;SDS011;4969;52.304;4.968;2023-03-13T11:06:21;14.10;;;8.07;;
9860;SDS011;4969;52.304;4.968;2023-03-13T11:08:50;9.25;;;4.93;;
9860;SDS011;4969;52.304;4.968;2023-03-13T11:11:24;10.45;;;6.45;;
9860;SDS011;4969;52.304;4.968;2023-03-13T11:13:54;7.80;;;4.32;;
9860;SDS011;4969;52.304;4.968;2023-03-13T11:16:33;9.38;;;4.07;;
9860;SDS011;4969;52.304;4.968;2023-03-13T11:19:08;12.38;;;6.63;;
9860;SDS011;4969;52.304;4.968;2023-03-13T11:21:47;9.27;;;4.20;;
9860;SDS011;4969;52.304;4.968;2023-03-13T11:24:22;8.50;;;5.30;;
9860;SDS011;4969;52.304;4.968;2023-03-13T11:26:58;12.45;;;6.93;;
9860;SDS011;4969;52.304;4.968;2023-03-13T11:29:34;8.18;;;4.93;;
9860;SDS011;4969;52.304;4.968;2023-03-13T11:32:12;12.55;;;6.15;;
9860;SDS011;4969;52.304;4.968;2023-03-13T11:34:46;9.90;;;5.03;;
9860;SDS011;4969;52.304;4.968;2023-03-13T11:37:16;11.27;;;4.20;;
9860;SDS011;4969;52.304;4.968;2023-03-13T11:39:52;13.30;;;6.57;;
9860;SDS011;4969;52.304;4.968;2023-03-13T11:42:34;7.60;;;3.83;;
9860;SDS011;4969;52.304;4.968;2023-03-13T11:45:11;10.30;;;3.80;;
9860;SDS011;4969;52.304;4.968;2023-03-13T11:47:55;12.55;;;7.00;;
9860;SDS011;4969;52.304;4.968;2023-03-13T11:50:29;12.27;;;5.03;;
9860;SDS011;4969;52.304;4.968;2023-03-13T11:53:08;13.57;;;5.18;;
9860;SDS011;4969;52.304;4.968;2023-03-13T11:55:51;14.48;;;5.78;;
9860;SDS011;4969;52.304;4.968;2023-03-13T11:58:36;10.73;;;5.13;;
9860;SDS011;4969;52.304;4.968;2023-03-13T12:01:11;10.93;;;3.65;;
9860;SDS011;4969;52.304;4.968;2023-03-13T12:03:41;11.48;;;5.55;;
9860;SDS011;4969;52.304;4.968;2023-03-13T12:06:21;11.93;;;4.07;;
9860;SDS011;4969;52.304;4.968;2023-03-13T12:08:51;11.50;;;4.53;;
9860;SDS011;4969;52.304;4.968;2023-03-13T12:11:22;12.73;;;4.60;;
9860;SDS011;4969;52.304;4.968;2023-03-13T12:13:53;15.13;;;4.70;;
9860;SDS011;4969;52.304;4.968;2023-03-13T12:16:25;15.90;;;5.50;;
9860;SDS011;4969;52.304;4.968;2023-03-13T12:19:04;12.00;;;3.78;;
9860;SDS011;4969;52.304;4.968;2023-03-13T12:21:34;17.02;;;4.70;;
9860;SDS011;4969;52.304;4.968;2023-03-13T12:24:05;15.18;;;4.97;;
9860;SDS011;4969;52.304;4.968;2023-03-13T12:26:41;19.75;;;5.97;;
9860;SDS011;4969;52.304;4.968;2023-03-13T12:29:13;18.60;;;5.15;;
9860;SDS011;4969;52.304;4.968;2023-03-13T12:31:46;15.50;;;5.30;;
9860;SDS011;4969;52.304;4.968;2023-03-13T12:34:17;17.60;;;4.90;;
9860;SDS011;4969;52.304;4.968;2023-03-13T12:36:48;18.33;;;5.60;;
9860;SDS011;4969;52.304;4.968;2023-03-13T12:39:20;17.25;;;6.00;;
9860;SDS011;4969;52.304;4.968;2023-03-13T12:41:56;13.98;;;5.20;;
9860;SDS011;4969;52.304;4.968;2023-03-13T12:44:34;13.73;;;5.03;;
9860;SDS011;4969;52.304;4.968;2023-03-13T12:47:05;17.25;;;5.45;;
9860;SDS011;4969;52.304;4.968;2023-03-13T12:49:39;16.63;;;5.65;;
9860;SDS011;4969;52.304;4.968;2023-03-13T13:00:46;14.75;;;5.10;;
9860;SDS011;4969;52.304;4.968;2023-03-13T13:03:20;15.52;;;4.93;;
9860;SDS011;4969;52.304;4.968;2023-03-13T13:06:04;15.35;;;4.60;;
9860;SDS011;4969;52.304;4.968;2023-03-13T13:08:34;12.95;;;4.28;;
9860;SDS011;4969;52.304;4.968;2023-03-13T13:17:21;16.17;;;4.60;;
9860;SDS011;4969;52.304;4.968;2023-03-13T13:19:51;13.82;;;4.13;;
9860;SDS011;4969;52.304;4.968;2023-03-13T13:25:27;16.35;;;4.43;;
9860;SDS011;4969;52.304;4.968;2023-03-13T13:30:58;13.88;;;4.28;;
9860;SDS011;4969;52.304;4.968;2023-03-13T13:33:37;11.98;;;4.30;;
9860;SDS011;4969;52.304;4.968;2023-03-13T13:39:19;12.38;;;4.28;;
9860;SDS011;4969;52.304;4.968;2023-03-13T13:41:54;13.25;;;4.85;;
9860;SDS011;4969;52.304;4.968;2023-03-13T13:44:22;12.50;;;4.78;;
9860;SDS011;4969;52.304;4.968;2023-03-13T13:46:51;12.50;;;3.80;;
9860;SDS011;4969;52.304;4.968;2023-03-13T13:49:20;20.00;;;5.90;;
9860;SDS011;4969;52.304;4.968;2023-03-13T13:54:52;16.08;;;4.90;;
9860;SDS011;4969;52.304;4.968;2023-03-13T13:57:20;15.13;;;5.25;;
9860;SDS011;4969;52.304;4.968;2023-03-13T13:59:49;17.35;;;5.78;;
9860;SDS011;4969;52.304;4.968;2023-03-13T14:02:19;14.90;;;5.40;;
9860;SDS011;4969;52.304;4.968;2023-03-13T14:04:51;17.25;;;6.47;;
9860;SDS011;4969;52.304;4.968;2023-03-13T14:07:24;16.88;;;5.70;;
9860;SDS011;4969;52.304;4.968;2023-03-13T14:09:59;13.50;;;5.55;;
9860;SDS011;4969;52.304;4.968;2023-03-13T14:12:31;15.55;;;4.38;;
9860;SDS011;4969;52.304;4.968;2023-03-13T14:15:06;16.73;;;5.38;;
9860;SDS011;4969;52.304;4.968;2023-03-13T14:17:45;16.88;;;5.05;;
9860;SDS011;4969;52.304;4.968;2023-03-13T14:20:22;15.50;;;5.30;;
9860;SDS011;4969;52.304;4.968;2023-03-13T14:22:52;13.30;;;4.80;;
9860;SDS011;4969;52.304;4.968;2023-03-13T14:25:21;17.48;;;5.97;;
9860;SDS011;4969;52.304;4.968;2023-03-13T14:27:49;18.35;;;5.47;;
9860;SDS011;4969;52.304;4.968;2023-03-13T14:30:17;17.63;;;5.70;;
9860;SDS011;4969;52.304;4.968;2023-03-13T14:32:45;15.32;;;4.60;;
9860;SDS011;4969;52.304;4.968;2023-03-13T14:35:14;17.55;;;5.15;;
9860;SDS011;4969;52.304;4.968;2023-03-13T14:37:45;19.27;;;4.95;;
9860;SDS011;4969;52.304;4.968;2023-03-13T14:43:02;15.75;;;4.88;;
9860;SDS011;4969;52.304;4.968;2023-03-13T14:45:30;17.48;;;5.20;;
9860;SDS011;4969;52.304;4.968;2023-03-13T14:48:01;15.02;;;5.43;;
9860;SDS011;4969;52.304;4.968;2023-03-13T14:50:29;18.65;;;5.65;;
9860;SDS011;4969;52.304;4.968;2023-03-13T14:52:58;18.88;;;5.18;;
9860;SDS011;4969;52.304;4.968;2023-03-13T14:55:33;18.02;;;5.45;;
9860;SDS011;4969;52.304;4.968;2023-03-13T14:58:05;20.23;;;5.40;;
9860;SDS011;4969;52.304;4.968;2023-03-13T15:00:49;19.73;;;5.47;;
9860;SDS011;4969;52.304;4.968;2023-03-13T15:03:29;17.73;;;6.00;;
9860;SDS011;4969;52.304;4.968;2023-03-13T15:06:02;18.52;;;5.38;;
9860;SDS011;4969;52.304;4.968;2023-03-13T15:08:32;19.02;;;5.05;;
9860;SDS011;4969;52.304;4.968;2023-03-13T15:11:00;16.92;;;4.57;;
9860;SDS011;4969;52.304;4.968;2023-03-13T15:13:32;19.83;;;5.32;;
9860;SDS011;4969;52.304;4.968;2023-03-13T15:16:00;15.88;;;4.38;;
9860;SDS011;4969;52.304;4.968;2023-03-13T15:18:28;18.35;;;4.95;;
9860;SDS011;4969;52.304;4.968;2023-03-13T15:20:57;16.88;;;5.82;;
9860;SDS011;4969;52.304;4.968;2023-03-13T15:23:24;18.23;;;5.85;;
9860;SDS011;4969;52.304;4.968;2023-03-13T15:25:53;16.05;;;4.88;;
9860;SDS011;4969;52.304;4.968;2023-03-13T15:28:20;18.75;;;5.22;;
9860;SDS011;4969;52.304;4.968;2023-03-13T15:30:48;20.02;;;5.65;;
9860;SDS011;4969;52.304;4.968;2023-03-13T15:33:17;19.05;;;5.05;;
9860;SDS011;4969;52.304;4.968;2023-03-13T15:35:45;22.10;;;5.60;;
9860;SDS011;4969;52.304;4.968;2023-03-13T15:38:13;14.00;;;5.13;;
9860;SDS011;4969;52.304;4.968;2023-03-13T15:40:41;21.88;;;6.03;;
9860;SDS011;4969;52.304;4.968;2023-03-13T15:43:09;17.77;;;6.50;;
9860;SDS011;4969;52.304;4.968;2023-03-13T15:45:36;20.38;;;5.93;;